createdAt,value
2022-10-20T00:00:55.778Z,99703.47
2022-10-20T00:03:24.617Z,99707.50
2022-10-20T00:05:54.455Z,99705.88
2022-10-20T00:08:22.424Z,99702.66
2022-10-20T00:10:56.783Z,99706.25
2022-10-20T00:13:25.921Z,99697.09
2022-10-20T00:15:56.213Z,99687.13
2022-10-20T00:18:25.068Z,99682.75
2022-10-20T00:20:54.793Z,99681.63
2022-10-20T00:23:23.597Z,99682.81
2022-10-20T00:26:02.069Z,99684.44
2022-10-20T00:28:30.182Z,99683.22
2022-10-20T00:30:58.494Z,99673.66
2022-10-20T00:33:26.860Z,99672.84
2022-10-20T00:35:56.013Z,99666.13
2022-10-20T00:38:23.855Z,99669.69
2022-10-20T00:40:52.044Z,99669.28
2022-10-20T00:43:20.033Z,99667.72
2022-10-20T00:45:53.806Z,99658.59
2022-10-20T00:48:24.859Z,99655.78
2022-10-20T00:50:57.180Z,99653.03
2022-10-20T00:53:29.357Z,99646.66
2022-10-20T00:55:59.056Z,99649.88
2022-10-20T00:58:27.858Z,99648.66
2022-10-20T01:00:59.140Z,99647.47
2022-10-20T01:03:31.479Z,99646.28
2022-10-20T01:06:00.702Z,99653.44
2022-10-20T01:08:28.819Z,99644.31
2022-10-20T01:11:07.485Z,99636.34
2022-10-20T01:13:45.860Z,99637.16
2022-10-20T01:16:23.064Z,99637.56
2022-10-20T01:19:01.998Z,99647.47
2022-10-20T01:21:54.018Z,99653.47
2022-10-20T01:24:35.325Z,99637.97
2022-10-20T01:27:27.318Z,99624.88
2022-10-20T01:30:02.351Z,99620.13
2022-10-20T01:32:39.348Z,99618.91
2022-10-20T01:35:14.167Z,99612.56
2022-10-20T01:37:49.544Z,99605.03
2022-10-20T01:40:26.646Z,99603.81
2022-10-20T01:42:59.366Z,99601.44
2022-10-20T01:45:30.716Z,99601.06
2022-10-20T01:48:00.948Z,99597.47
2022-10-20T01:50:30.727Z,99590.72
2022-10-20T01:52:59.149Z,99585.16
2022-10-20T01:55:27.385Z,99574.03
2022-10-20T01:58:16.744Z,99561.72
2022-10-20T02:00:45.503Z,99564.50
2022-10-20T02:03:37.715Z,99552.56
2022-10-20T02:06:17.250Z,99543.84
2022-10-20T02:08:47.918Z,99545.06
2022-10-20T02:11:22.375Z,99544.66
2022-10-20T02:13:53.682Z,99545.09
2022-10-20T02:16:28.291Z,99551.00
2022-10-20T02:21:32.541Z,99556.19
2022-10-20T02:24:04.710Z,99551.44
2022-10-20T02:26:34.949Z,99539.50
2022-10-20T02:29:11.689Z,99551.03
2022-10-20T02:31:40.250Z,99549.81
2022-10-20T02:34:09.398Z,99540.28
2022-10-20T02:36:40.744Z,99538.34
2022-10-20T02:39:09.113Z,99532.34
2022-10-20T02:41:37.504Z,99540.31
2022-10-20T02:44:06.762Z,99543.88
2022-10-20T02:46:34.577Z,99539.94
2022-10-20T02:49:02.369Z,99539.88
2022-10-20T02:51:30.182Z,99545.44
2022-10-20T02:53:57.995Z,99552.59
2022-10-20T02:56:27.618Z,99549.00
2022-10-20T02:58:58.539Z,99550.19
2022-10-20T03:01:28.354Z,99547.84
2022-10-20T03:03:59.685Z,99550.22
2022-10-20T03:06:28.065Z,99546.22
2022-10-20T03:08:56.241Z,99548.59
2022-10-20T03:11:24.661Z,99544.25
2022-10-20T03:13:52.450Z,99538.31
2022-10-20T03:16:20.330Z,99531.16
2022-10-20T03:18:49.626Z,99527.19
2022-10-20T03:21:17.803Z,99521.66
2022-10-20T03:23:45.873Z,99524.84
2022-10-20T03:26:14.236Z,99524.06
2022-10-20T03:28:42.467Z,99528.78
2022-10-20T03:31:10.635Z,99524.03
2022-10-20T03:33:38.499Z,99517.69
2022-10-20T03:36:08.256Z,99521.28
2022-10-20T03:38:36.066Z,99521.28
2022-10-20T03:41:04.559Z,99522.06
2022-10-20T03:43:33.687Z,99515.31
2022-10-20T03:46:03.529Z,99518.88
2022-10-20T03:48:31.611Z,99512.53
2022-10-20T03:51:00.906Z,99520.47
2022-10-20T03:53:30.771Z,99521.28
2022-10-20T03:55:58.739Z,99519.25
2022-10-20T03:58:26.547Z,99520.81
2022-10-20T04:00:55.416Z,99512.50
2022-10-20T04:03:23.190Z,99520.09
2022-10-20T04:05:51.023Z,99509.38
2022-10-20T04:08:18.941Z,99512.50
2022-10-20T04:10:48.149Z,99513.75
2022-10-20T04:13:16.623Z,99504.63
2022-10-20T04:15:44.586Z,99499.03
2022-10-20T04:18:12.449Z,99489.50
2022-10-20T04:20:43.505Z,99493.50
2022-10-20T04:23:12.606Z,99493.09
2022-10-20T04:25:45.367Z,99491.13
2022-10-20T04:28:15.247Z,99495.88
2022-10-20T04:30:43.788Z,99497.44
2022-10-20T04:33:12.498Z,99490.34
2022-10-20T04:35:41.106Z,99486.34
2022-10-20T04:38:09.033Z,99482.00
2022-10-20T04:40:36.834Z,99489.16
2022-10-20T04:43:05.220Z,99487.53
2022-10-20T04:45:34.462Z,99491.84
2022-10-20T04:48:02.281Z,99474.88
2022-10-20T04:50:30.090Z,99474.41
2022-10-20T04:53:08.454Z,99468.41
2022-10-20T04:55:36.960Z,99470.78
2022-10-20T04:58:04.897Z,99481.16
2022-10-20T05:00:34.107Z,99470.41
2022-10-20T05:03:01.986Z,99456.13
2022-10-20T05:05:29.847Z,99446.66
2022-10-20T05:07:57.652Z,99426.88
2022-10-20T05:10:25.389Z,99424.88
2022-10-20T05:12:53.257Z,99423.69
2022-10-20T05:15:21.452Z,99422.09
2022-10-20T05:17:50.657Z,99410.53
2022-10-20T05:20:18.625Z,99402.56
2022-10-20T05:22:46.414Z,99398.16
2022-10-20T05:28:01.985Z,99402.06
2022-10-20T05:30:29.808Z,99412.81
2022-10-20T05:32:58.910Z,99388.91
2022-10-20T05:35:26.734Z,99394.88
2022-10-20T05:37:54.531Z,99395.59
2022-10-20T05:40:22.521Z,99403.94
2022-10-20T05:42:50.432Z,99403.13
2022-10-20T05:45:18.434Z,99387.63
2022-10-20T05:47:46.392Z,99375.66
2022-10-20T05:50:15.509Z,99384.00
2022-10-20T05:52:43.266Z,99384.66
2022-10-20T05:55:11.576Z,99383.13
2022-10-20T05:57:39.351Z,99378.00
2022-10-20T06:00:08.615Z,99400.25
2022-10-20T06:02:40.003Z,99400.16
2022-10-20T06:05:08.383Z,99408.13
2022-10-20T06:07:37.573Z,99419.53
2022-10-20T06:10:05.907Z,99412.69
2022-10-20T06:12:33.825Z,99410.34
2022-10-20T06:15:01.837Z,99408.81
2022-10-20T06:17:29.618Z,99396.00
2022-10-20T06:19:57.425Z,99401.41
2022-10-20T06:22:25.303Z,99393.34
2022-10-20T06:24:54.478Z,99410.19
2022-10-20T06:27:22.262Z,99410.94
2022-10-20T06:29:50.086Z,99416.88
2022-10-20T06:32:18.783Z,99412.09
2022-10-20T06:34:46.596Z,99407.69
2022-10-20T06:37:14.420Z,99418.03
2022-10-20T06:39:42.237Z,99413.63
2022-10-20T06:42:12.327Z,99409.03
2022-10-20T06:44:46.138Z,99411.84
2022-10-20T06:47:13.931Z,99405.84
2022-10-20T06:49:41.740Z,99402.97
2022-10-20T06:54:44.076Z,99413.22
2022-10-20T06:57:13.737Z,99411.94
2022-10-20T06:59:41.507Z,99407.91
2022-10-20T07:02:11.832Z,99399.41
2022-10-20T07:04:39.915Z,99404.63
2022-10-20T07:07:07.834Z,99398.13
2022-10-20T07:09:35.740Z,99393.84
2022-10-20T07:12:03.624Z,99392.47
2022-10-20T07:14:33.193Z,99392.38
2022-10-20T07:17:01.039Z,99386.84
2022-10-20T07:19:28.849Z,99376.28
2022-10-20T07:21:56.866Z,99377.78
2022-10-20T07:24:25.049Z,99376.41
2022-10-20T07:26:52.818Z,99381.44
2022-10-20T07:29:21.052Z,99393.53
2022-10-20T07:31:50.294Z,99394.69
2022-10-20T07:34:26.117Z,99398.09
2022-10-20T07:36:55.091Z,99392.53
2022-10-20T07:39:23.389Z,99385.72
2022-10-20T07:41:51.961Z,99394.41
2022-10-20T07:44:20.268Z,99402.59
2022-10-20T07:46:48.218Z,99399.78
2022-10-20T07:49:42.819Z,99404.72
2022-10-20T07:52:06.064Z,99415.84
2022-10-20T07:54:33.969Z,99407.47
2022-10-20T07:57:01.738Z,99405.63
2022-10-20T07:59:29.963Z,99406.69
2022-10-20T08:01:59.804Z,99395.94
2022-10-20T08:04:31.827Z,99385.81
2022-10-20T08:07:00.194Z,99388.94
2022-10-20T08:09:27.994Z,99394.31
2022-10-20T08:11:56.125Z,99394.00
2022-10-20T08:14:26.829Z,99391.38
2022-10-20T08:17:07.218Z,99384.78
2022-10-20T08:19:40.469Z,99383.03
2022-10-20T08:22:08.379Z,99384.31
2022-10-20T08:24:36.200Z,99385.91
2022-10-20T08:27:04.291Z,99374.22
2022-10-20T08:29:32.144Z,99371.16
2022-10-20T08:31:59.962Z,99370.81
2022-10-20T08:34:27.862Z,99376.06
2022-10-20T08:36:57.146Z,99375.66
2022-10-20T08:39:25.205Z,99376.72
2022-10-20T08:42:07.401Z,99370.50
2022-10-20T08:44:37.375Z,99365.59
2022-10-20T08:47:15.561Z,99359.19
2022-10-20T08:49:46.986Z,99350.78
2022-10-20T08:52:16.628Z,99363.56
2022-10-20T08:54:44.797Z,99366.69
2022-10-20T08:57:22.552Z,99369.94
2022-10-20T08:59:53.339Z,99364.94
2022-10-20T09:02:22.061Z,99370.91
2022-10-20T09:04:53.074Z,99376.00
2022-10-20T09:07:30.885Z,99373.38
2022-10-20T09:10:05.696Z,99366.19
2022-10-20T09:12:34.527Z,99359.00
2022-10-20T09:15:04.158Z,99351.38
2022-10-20T09:17:32.562Z,99346.41
2022-10-20T09:20:01.339Z,99341.50
2022-10-20T09:22:35.714Z,99338.88
2022-10-20T09:25:04.719Z,99340.03
2022-10-20T09:27:35.625Z,99338.97
2022-10-20T09:30:18.806Z,99332.84
2022-10-20T09:32:48.130Z,99343.97
2022-10-20T09:35:30.809Z,99339.38
2022-10-20T09:38:20.933Z,99338.44
2022-10-20T09:41:08.164Z,99334.59
2022-10-20T09:43:38.523Z,99333.78
2022-10-20T09:46:08.897Z,99328.09
2022-10-20T09:48:37.646Z,99318.75
2022-10-20T09:51:08.171Z,99320.06
2022-10-20T09:53:50.361Z,99314.25
2022-10-20T09:56:25.397Z,99325.34
2022-10-20T09:58:53.540Z,99313.47
2022-10-20T10:01:21.507Z,99323.09
2022-10-20T10:03:51.631Z,99308.72
2022-10-20T10:06:32.852Z,99323.00
2022-10-20T10:09:03.111Z,99318.72
2022-10-20T10:11:35.411Z,99316.84
2022-10-20T10:14:04.511Z,99321.75
2022-10-20T10:16:42.198Z,99325.72
2022-10-20T10:19:18.994Z,99342.56
2022-10-20T10:21:49.584Z,99353.69
2022-10-20T10:24:31.091Z,99335.38
2022-10-20T10:26:59.251Z,99341.50
2022-10-20T10:29:28.427Z,99331.03
2022-10-20T10:32:01.702Z,99319.84
2022-10-20T10:34:58.673Z,99331.03
2022-10-20T10:37:27.776Z,99320.94
2022-10-20T10:39:58.954Z,99312.72
2022-10-20T10:42:45.329Z,99305.06
2022-10-20T10:45:25.299Z,99303.69
2022-10-20T10:48:13.458Z,99312.16
2022-10-20T10:50:48.951Z,99321.91
2022-10-20T10:53:25.226Z,99309.97
2022-10-20T10:56:04.528Z,99296.28
2022-10-20T10:58:46.199Z,99289.88
2022-10-20T11:01:26.047Z,99290.50
2022-10-20T11:04:19.002Z,99298.59
2022-10-20T11:06:57.869Z,99293.66
2022-10-20T11:09:34.055Z,99285.13
2022-10-20T11:12:22.358Z,99290.16
2022-10-20T11:15:00.892Z,99293.31
2022-10-20T11:17:41.827Z,99289.63
2022-10-20T11:20:24.231Z,99295.53
2022-10-20T11:23:09.048Z,99286.97
2022-10-20T11:25:46.583Z,99275.63
2022-10-20T11:28:29.222Z,99276.94
2022-10-20T11:30:59.038Z,99278.75
2022-10-20T11:33:31.779Z,99258.72
2022-10-20T11:36:04.675Z,99266.06
2022-10-20T11:38:40.173Z,99269.44
2022-10-20T11:41:16.407Z,99281.00
2022-10-20T11:43:51.602Z,99257.69
2022-10-20T11:46:24.275Z,99264.38
2022-10-20T11:48:54.177Z,99276.34
2022-10-20T11:51:45.087Z,99272.97
2022-10-20T11:54:51.565Z,99274.06
2022-10-20T11:57:29.525Z,99272.47
2022-10-20T12:00:12.434Z,99262.66
2022-10-20T12:03:15.951Z,99249.13
2022-10-20T12:06:09.055Z,99235.31
2022-10-20T12:09:08.226Z,99244.63
2022-10-20T12:11:43.716Z,99230.72
2022-10-20T12:14:23.821Z,99213.19
2022-10-20T12:17:22.014Z,99222.91
2022-10-20T12:19:51.531Z,99215.41
2022-10-20T12:22:40.330Z,99220.91
2022-10-20T12:25:40.433Z,99205.56
2022-10-20T12:28:33.870Z,99193.81
2022-10-20T12:31:03.188Z,99210.44
2022-10-20T12:33:42.046Z,99204.38
2022-10-20T12:36:35.069Z,99200.78
2022-10-20T12:39:19.460Z,99190.41
2022-10-20T12:41:58.259Z,99184.34
2022-10-20T12:44:28.812Z,99163.38
2022-10-20T12:46:57.870Z,99161.97
2022-10-20T12:49:32.246Z,99153.34
2022-10-20T12:52:00.690Z,99152.53
2022-10-20T12:54:35.795Z,99158.69
2022-10-20T12:57:07.120Z,99148.31
2022-10-20T12:59:40.812Z,99158.31
2022-10-20T13:02:48.895Z,99147.03
2022-10-20T13:05:53.877Z,99144.94
2022-10-20T13:08:42.791Z,99162.03
2022-10-20T13:11:44.627Z,99167.69
2022-10-20T13:14:26.077Z,99176.16
2022-10-20T13:17:03.905Z,99173.34
2022-10-20T13:19:40.954Z,99175.84
2022-10-20T13:22:36.468Z,99164.09
2022-10-20T13:25:06.704Z,99158.16
2022-10-20T13:27:34.989Z,99149.22
2022-10-20T13:30:09.313Z,99154.53
2022-10-20T13:33:01.702Z,99159.88
2022-10-20T13:35:53.794Z,99153.56
2022-10-20T13:38:32.682Z,99140.75
2022-10-20T13:41:13.716Z,99142.81
2022-10-20T13:43:57.445Z,99152.69
2022-10-20T13:46:43.590Z,99159.50
2022-10-20T13:49:28.067Z,99168.31
2022-10-20T13:52:01.690Z,99168.34
2022-10-20T13:54:38.498Z,99185.59
2022-10-20T13:57:16.658Z,99196.72
2022-10-20T13:59:58.705Z,99208.81
2022-10-20T14:02:29.426Z,99195.63
2022-10-20T14:05:06.286Z,99197.22
2022-10-20T14:07:39.105Z,99202.53
2022-10-20T14:10:22.761Z,99203.00
2022-10-20T14:12:58.101Z,99192.38
2022-10-20T14:15:31.712Z,99189.97
2022-10-20T14:18:02.903Z,99180.63
2022-10-20T14:20:32.325Z,99168.09
2022-10-20T14:23:04.104Z,99166.84
2022-10-20T14:25:35.676Z,99168.22
2022-10-20T14:28:07.511Z,99178.44
2022-10-20T14:30:41.153Z,99179.81
2022-10-20T14:33:16.322Z,99177.94
2022-10-20T14:35:47.926Z,99186.88
2022-10-20T14:38:20.161Z,99190.63
2022-10-20T14:40:55.574Z,99190.63
2022-10-20T14:43:33.609Z,99182.19
2022-10-20T14:46:07.088Z,99173.91
2022-10-20T14:48:39.550Z,99160.84
2022-10-20T14:51:30.973Z,99140.63
2022-10-20T14:54:26.931Z,99113.53
2022-10-20T14:56:57.565Z,99104.72
2022-10-20T14:59:27.722Z,99092.19
2022-10-20T15:02:01.285Z,99092.97
2022-10-20T15:04:33.616Z,99085.75
2022-10-20T15:07:07.191Z,99078.09
2022-10-20T15:09:40.657Z,99068.88
2022-10-20T15:12:16.891Z,99065.44
2022-10-20T15:14:54.454Z,99074.94
2022-10-20T15:17:37.168Z,99083.97
2022-10-20T15:20:31.795Z,99080.59
2022-10-20T15:23:01.269Z,99080.84
2022-10-20T15:25:31.937Z,99062.94
2022-10-20T15:28:01.212Z,99062.97
2022-10-20T15:30:29.050Z,99054.97
2022-10-20T15:32:56.886Z,99051.84
2022-10-20T15:35:24.937Z,99056.09
2022-10-20T15:37:54.592Z,99053.56
2022-10-20T15:40:23.249Z,99055.41
2022-10-20T15:42:51.056Z,99060.28
2022-10-20T15:45:22.382Z,99054.91
2022-10-20T15:47:50.302Z,99056.63
2022-10-20T15:50:21.677Z,99072.06
2022-10-20T15:52:52.041Z,99079.81
2022-10-20T15:55:23.265Z,99087.16
2022-10-20T15:57:51.472Z,99092.13
2022-10-20T16:00:22.847Z,99087.19
2022-10-20T16:02:51.748Z,99100.19
2022-10-20T16:05:23.322Z,99098.84
2022-10-20T16:07:53.025Z,99083.41
2022-10-20T16:10:22.553Z,99085.28
2022-10-20T16:12:50.927Z,99070.22
2022-10-20T16:15:20.407Z,99071.00
2022-10-20T16:20:17.078Z,99072.09
2022-10-20T16:22:45.024Z,99081.75
2022-10-20T16:25:13.257Z,99066.66
2022-10-20T16:27:41.388Z,99073.03
2022-10-20T16:30:09.801Z,99075.97
2022-10-20T16:32:39.816Z,99086.34
2022-10-20T16:35:08.609Z,99085.53
2022-10-20T16:37:36.902Z,99091.09
2022-10-20T16:40:05.544Z,99087.50
2022-10-20T16:42:33.455Z,99083.03
2022-10-20T16:45:01.240Z,99086.88
2022-10-20T16:47:28.984Z,99072.25
2022-10-20T16:49:58.115Z,99071.59
2022-10-20T16:52:25.963Z,99072.75
2022-10-20T16:54:53.857Z,99065.16
2022-10-20T16:57:21.665Z,99069.09
2022-10-20T16:59:50.079Z,99070.16
2022-10-20T17:02:19.200Z,99062.91
2022-10-20T17:04:49.951Z,99072.56
2022-10-20T17:07:19.244Z,99070.19
2022-10-20T17:09:47.094Z,99057.91
2022-10-20T17:12:14.901Z,99083.31
2022-10-20T17:14:42.964Z,99075.09
2022-10-20T17:17:10.752Z,99065.84
2022-10-20T17:19:40.911Z,99088.59
2022-10-20T17:24:40.275Z,99071.47
2022-10-20T17:27:08.057Z,99075.59
2022-10-20T17:29:36.131Z,99088.41
2022-10-20T17:32:03.974Z,99090.25
2022-10-20T17:34:31.907Z,99084.16
2022-10-20T17:36:59.970Z,99081.66
2022-10-20T17:39:28.443Z,99071.69
2022-10-20T17:41:57.658Z,99081.25
2022-10-20T17:44:25.689Z,99081.28
2022-10-20T17:46:53.489Z,99055.69
2022-10-20T17:49:21.321Z,99047.81
2022-10-20T17:51:49.118Z,99047.50
2022-10-20T17:54:16.888Z,99066.59
2022-10-20T17:56:44.783Z,99083.91
2022-10-20T17:59:14.991Z,99079.78
2022-10-20T18:01:43.103Z,99081.41
2022-10-20T18:04:12.521Z,99083.84
2022-10-20T18:06:41.903Z,99078.69
2022-10-20T18:09:11.859Z,99074.09
2022-10-20T18:11:42.388Z,99073.31
2022-10-20T18:14:10.280Z,99069.81
2022-10-20T18:16:41.343Z,99065.09
2022-10-20T18:19:13.944Z,99055.59
2022-10-20T18:21:41.747Z,99060.91
2022-10-20T18:24:12.739Z,99053.59
2022-10-20T18:26:41.153Z,99051.69
2022-10-20T18:29:10.210Z,99045.41
2022-10-20T18:31:41.163Z,99049.53
2022-10-20T18:34:11.794Z,99048.41
2022-10-20T18:36:43.518Z,99027.13
2022-10-20T18:39:14.702Z,99030.88
2022-10-20T18:41:44.289Z,99043.56
2022-10-20T18:44:14.237Z,99029.78
2022-10-20T18:46:43.867Z,99040.13
2022-10-20T18:49:14.149Z,99052.19
2022-10-20T18:51:42.316Z,99048.06
2022-10-20T18:54:10.836Z,99051.63
2022-10-20T18:56:38.634Z,99055.00
2022-10-20T18:59:10.280Z,99060.53
2022-10-20T19:01:48.011Z,99065.66
2022-10-20T19:04:16.159Z,99067.97
2022-10-20T19:06:45.333Z,99064.94
2022-10-20T19:09:15.720Z,99086.75
2022-10-20T19:11:44.485Z,99090.09
2022-10-20T19:14:13.203Z,99090.38
2022-10-20T19:16:43.472Z,99086.06
2022-10-20T19:19:13.190Z,99084.09
2022-10-20T19:21:41.079Z,99089.31
2022-10-20T19:24:12.635Z,99093.25
2022-10-20T19:26:42.030Z,99105.03
2022-10-20T19:29:12.595Z,99107.84
2022-10-20T19:31:43.343Z,99109.44
2022-10-20T19:34:15.100Z,99108.88
2022-10-20T19:36:46.533Z,99091.13
2022-10-20T19:39:16.611Z,99084.56
2022-10-20T19:41:46.346Z,99091.94
2022-10-20T19:44:15.485Z,99085.13
2022-10-20T19:46:43.859Z,99088.97
2022-10-20T19:49:13.888Z,99082.00
2022-10-20T19:51:42.235Z,99086.75
2022-10-20T19:54:10.941Z,99084.75
2022-10-20T19:56:39.358Z,99093.75
2022-10-20T19:59:08.755Z,99086.22
2022-10-20T20:01:37.138Z,99099.91
2022-10-20T20:04:06.146Z,99082.03
2022-10-20T20:06:36.045Z,99089.69
2022-10-20T20:09:07.438Z,99087.22
2022-10-20T20:11:37.625Z,99088.47
2022-10-20T20:14:07.615Z,99077.03
2022-10-20T20:16:36.052Z,99078.34
2022-10-20T20:19:04.726Z,99074.19
2022-10-20T20:21:32.874Z,99069.06
2022-10-20T20:24:04.358Z,99068.72
2022-10-20T20:26:33.960Z,99073.97
2022-10-20T20:29:01.841Z,99069.72
2022-10-20T20:31:30.096Z,99070.28
2022-10-20T20:33:58.471Z,99061.53
2022-10-20T20:36:27.656Z,99056.66
2022-10-20T20:38:57.443Z,99059.03
2022-10-20T20:41:30.085Z,99053.69
2022-10-20T20:43:58.289Z,99059.97
2022-10-20T20:46:30.738Z,99041.59
2022-10-20T20:48:58.845Z,99054.34
2022-10-20T20:51:28.863Z,99065.69
2022-10-20T20:53:56.829Z,99073.66
2022-10-20T20:56:27.011Z,99057.47
2022-10-20T20:58:56.266Z,99064.09
2022-10-20T21:01:27.365Z,99051.25
2022-10-20T21:03:56.129Z,99055.25
2022-10-20T21:06:33.394Z,99056.97
2022-10-20T21:09:02.140Z,99060.41
2022-10-20T21:11:30.131Z,99063.06
2022-10-20T21:13:59.880Z,99046.19
2022-10-20T21:16:29.686Z,99043.06
2022-10-20T21:18:59.460Z,99037.81
2022-10-20T21:21:30.313Z,99031.69
2022-10-20T21:23:59.479Z,99040.63
2022-10-20T21:26:27.970Z,99033.72
2022-10-20T21:28:55.942Z,99033.25
2022-10-20T21:31:27.259Z,99033.22
2022-10-20T21:33:56.502Z,99010.69
2022-10-20T21:36:25.955Z,98996.81
2022-10-20T21:38:54.239Z,99002.28
2022-10-20T21:41:23.446Z,98989.97
2022-10-20T21:43:53.789Z,98990.88
2022-10-20T21:46:23.563Z,98995.78
2022-10-20T21:48:54.823Z,99008.56
2022-10-20T21:51:24.289Z,99015.53
2022-10-20T21:53:55.837Z,99005.06
2022-10-20T21:56:24.174Z,98993.63
2022-10-20T21:58:52.118Z,98995.69
2022-10-20T22:01:21.920Z,98995.78
2022-10-20T22:03:50.898Z,99004.09
2022-10-20T22:06:22.259Z,99003.75
2022-10-20T22:08:51.968Z,99009.25
2022-10-20T22:11:22.556Z,99006.69
2022-10-20T22:13:50.728Z,98997.63
2022-10-20T22:16:21.547Z,99003.88
2022-10-20T22:18:49.512Z,99022.38
2022-10-20T22:21:19.061Z,99019.47
2022-10-20T22:23:48.270Z,99018.44
2022-10-20T22:26:16.200Z,99020.72
2022-10-20T22:28:44.101Z,98992.91
2022-10-20T22:31:13.515Z,99003.53
2022-10-20T22:33:43.821Z,99013.31
2022-10-20T22:36:11.705Z,99005.00
2022-10-20T22:38:39.554Z,98989.63
2022-10-20T22:41:08.947Z,98971.03
2022-10-20T22:43:37.043Z,98956.69
2022-10-20T22:46:05.841Z,98969.34
2022-10-20T22:48:33.780Z,98983.38
2022-10-20T22:51:04.849Z,98971.13
2022-10-20T22:53:32.511Z,98964.19
2022-10-20T22:56:06.473Z,98970.34
2022-10-20T22:58:35.931Z,98969.78
2022-10-20T23:01:08.282Z,98965.22
2022-10-20T23:03:36.227Z,98965.09
2022-10-20T23:06:08.169Z,98945.69
2022-10-20T23:08:39.779Z,98959.59
2022-10-20T23:11:08.061Z,98952.31
2022-10-20T23:13:37.522Z,98958.38
2022-10-20T23:16:05.793Z,98958.03
2022-10-20T23:18:33.769Z,98951.31
2022-10-20T23:21:01.826Z,98948.28
2022-10-20T23:23:29.825Z,98936.72
2022-10-20T23:25:59.643Z,98947.75
2022-10-20T23:28:30.127Z,98945.91
2022-10-20T23:31:08.045Z,98944.00
2022-10-20T23:33:36.900Z,98934.03
2022-10-20T23:36:05.126Z,98931.00
2022-10-20T23:38:33.010Z,98914.50
2022-10-20T23:41:00.827Z,98911.59
2022-10-20T23:43:28.782Z,98915.78
2022-10-20T23:45:56.656Z,98913.53
2022-10-20T23:48:25.975Z,98908.69
2022-10-20T23:50:53.931Z,98901.22
2022-10-20T23:53:21.867Z,98884.97
2022-10-20T23:55:49.884Z,98885.88
2022-10-20T23:58:21.015Z,98879.81
